Lake Arthur, Louisiana
Current Conditions -  °F | °C
As of 6:55 PM on Friday 24 Oct 2014 (Local Time) from K3R7 Reporting Station
Clear Clear  
Wind Chill: 20°   Ceiling: Unl
Heat Index: 20°   Visibility: 10mi
Dew Point:   Wind: 3mph
Humidity: 48%   Direction: 10°N
Pressure: 30.1"   Gusts: NA
Location:  30.08°N, 92.67°W
Report Text: K3R7 242355Z AUTO 01003KT 10SM CLR 20/09 A3010 RMK AO2 T02000088 10239 20198
Loading
Personal Weather Stations






























Interactive Weather Map
Tropical Storm Tracking
New forecast layout! Learn more

10-Day Weather Forecast

Advertisements
Track Severe Weather on mobile